ADDS METAR Data INFO
IDs: Format: Raw Decoded Include TAF

Data at: 1902 UTC 23 Apr 2018

KROC 231854Z VRB05KT 10SM FEW250 21/M05 A3031 RMK AO2 SLP268 T02111050
KROC 231754Z 10SM CLR 20/M06 A3033 RMK AO2 SLP273 T02001056 10206 20050 58028
KROC 231654Z 15006KT 10SM FEW250 19/M05 A3036 RMK AO2 SLP285 T01891050
KROC 231554Z VRB05KT 10SM FEW250 17/M04 A3039 RMK AO2 SLP295 T01721039
KROC 231454Z VRB04KT 10SM FEW250 16/M03 A3041 RMK AO2 SLP303 T01561033 58007
KROC 231354Z 00000KT 10SM FEW250 12/M04 A3043 RMK AO2 SLP309 T01221039
KROC 231254Z 00000KT 10SM FEW250 08/M02 A3043 RMK AO2 SLP310 T00831022
KROC 231154Z 00000KT 10SM FEW250 05/00 A3043 RMK AO2 SLP311 T00500000 10050 20000 53006
KROC 231054Z 23003KT 10SM FEW250 01/M02 A3042 RMK AO2 SLP308 T00061017
KROC 230954Z 00000KT 10SM CLR 01/M02 A3041 RMK AO2 SLP303 T00061022
KROC 230854Z 23004KT 8SM CLR 01/M03 A3041 RMK AO2 SLP304 T00061028 53002
KROC 230754Z 00000KT 10SM CLR 03/M02 A3041 RMK AO2 SLP301 T00331017
KROC 230654Z 23003KT 10SM CLR 03/M02 A3040 RMK AO2 SLP302 T00281022
KROC 230554Z 00000KT 10SM FEW250 05/M05 A3041 RMK AO2 SLP301 T00501050 10139 20039 55000
KROC 230454Z 00000KT 10SM CLR 04/M04 A3040 RMK AO2 SLP301 T00391039 401670000
KROC 230354Z 00000KT 10SM CLR 06/M03 A3041 RMK AO2 SLP301 T00561028
KROC 230254Z 00000KT 10SM CLR 08/M03 A3041 RMK AO2 SLP302 T00781033 50006
KROC 230154Z 00000KT 10SM CLR 09/M06 A3041 RMK AO2 SLP303 T00941056
KROC 230054Z 13003KT 10SM CLR 11/M06 A3040 RMK AO2 SLP301 T01111056
KROC 222354Z 09004KT 10SM CLR 14/M09 A3039 RMK AO2 SLP296 T01391089 10167 20133 53001
KROC 222254Z 03008KT 10SM CLR 14/M07 A3038 RMK AO2 SLP295 T01441067
KROC 222154Z 05008KT 10SM CLR 16/M08 A3038 RMK AO2 SLP294 T01561078
KROC 222054Z 34006KT 10SM CLR 16/M09 A3038 RMK AO2 SLP294 T01561089 57013
KROC 221954Z 04007KT 10SM CLR 16/M08 A3039 RMK AO2 SLP298 T01611078
KROC 221854Z VRB05G15KT 10SM FEW240 16/M08 A3041 RMK AO2 SLP303 T01611083
KROC 221754Z 35009G15KT 320V040 10SM CLR 16/M07 A3042 RMK AO2 SLP307 T01561072 10161 20028 58012
KROC 221654Z 01004KT 10SM FEW230 15/M08 A3043 RMK AO2 SLP310 T01501083
KROC 221554Z 00000KT 10SM FEW240 14/M08 A3045 RMK AO2 SLP316 T01441083
KROC 221454Z 27005KT 10SM CLR 13/M04 A3046 RMK AO2 SLP318 T01281044 51006
KROC 221354Z VRB03KT 10SM FEW240 10/M02 A3045 RMK AO2 SLP319 T01001017
KROC 221254Z 23006KT 10SM FEW240 06/M01 A3045 RMK AO2 SLP317 T00611011
KROC 221154Z 23006KT 10SM FEW240 03/M02 A3044 RMK AO2 SLP314 T00281017 10028 20000 53011
KROC 221054Z 23005KT 10SM FEW240 00/M03 A3042 RMK AO2 SLP310 T00001028
KROC 220954Z 24005KT 10SM FEW240 00/M03 A3041 RMK AO2 SLP304 T00001028
KROC 220854Z 25004KT 10SM FEW240 01/M03 A3040 RMK AO2 SLP302 T00061028 58002
KROC 220754Z 24005KT 10SM FEW240 01/M03 A3040 RMK AO2 SLP303 T00111033